Time;durP1;ratioP1;P1;durP2;ratioP2;P2;SDS_P1;SDS_P2;PMS_P1;PMS_P2;Temp;Humidity;BMP_temperature;BMP_pressure;BME280_temperature;BME280_humidity;BME280_pressure;Samples;Min_cycle;Max_cycle;Signal;HPM_P1;HPM_P2
2023/06/04 00:00:40;;;;;;;0.30;0.30;;;19.20;99.90;;;;;;5053643;28;20140;-86
2023/06/04 00:03:06;;;;;;;0.28;0.28;;;19.10;99.90;;;;;;5053765;28;20039;-87
2023/06/04 00:05:32;;;;;;;0.30;0.30;;;18.90;99.90;;;;;;5053460;28;20037;-87
2023/06/04 00:07:57;;;;;;;0.10;0.10;;;18.80;99.90;;;;;;5035828;28;20025;-87
2023/06/04 00:10:23;;;;;;;0.20;0.20;;;18.80;99.90;;;;;;5053764;28;20032;-86
2023/06/04 00:12:49;;;;;;;0.10;0.10;;;18.90;99.90;;;;;;5054166;28;20390;-86
2023/06/04 00:15:16;;;;;;;0.40;0.20;;;18.90;99.90;;;;;;5053906;28;20021;-87
2023/06/04 00:17:42;;;;;;;0.10;0.10;;;18.70;99.90;;;;;;5035679;28;20029;-86
2023/06/04 00:20:08;;;;;;;0.10;0.10;;;18.60;99.90;;;;;;5035279;28;20278;-87
2023/06/04 00:22:34;;;;;;;0.55;0.55;;;18.60;99.90;;;;;;5053272;28;20125;-86
2023/06/04 00:25:00;;;;;;;0.20;0.20;;;18.60;99.90;;;;;;5053724;28;20044;-87
2023/06/04 00:27:25;;;;;;;0.10;0.10;;;18.50;99.90;;;;;;5053230;28;20393;-87
2023/06/04 00:29:51;;;;;;;0.10;0.10;;;18.50;99.90;;;;;;5053307;28;20512;-86
2023/06/04 00:32:16;;;;;;;0.10;0.10;;;18.40;99.90;;;;;;5035327;28;20031;-87
2023/06/04 00:34:42;;;;;;;0.10;0.10;;;18.30;99.90;;;;;;5035124;28;20055;-87
2023/06/04 00:37:08;;;;;;;0.00;0.00;;;18.50;99.90;;;;;;5053400;28;20501;-86
2023/06/04 00:39:34;;;;;;;0.00;0.00;;;18.70;99.90;;;;;;5035357;28;20133;-87
2023/06/04 00:42:00;;;;;;;0.17;0.05;;;18.80;99.90;;;;;;5052790;28;20040;-86
2023/06/04 00:44:26;;;;;;;0.10;0.10;;;18.80;99.90;;;;;;5053082;28;20544;-87
2023/06/04 00:46:53;;;;;;;0.20;0.20;;;19.00;99.90;;;;;;5053041;28;20060;-86
2023/06/04 00:49:20;;;;;;;0.00;0.00;;;18.90;99.90;;;;;;5051228;28;20029;-86
2023/06/04 00:51:46;;;;;;;0.10;0.10;;;18.60;99.90;;;;;;5033045;28;20037;-87
2023/06/04 00:54:13;;;;;;;0.10;0.10;;;18.90;99.90;;;;;;5033049;28;20031;-86
2023/06/04 00:56:39;;;;;;;0.00;0.00;;;19.00;99.90;;;;;;5033304;28;20037;-87
2023/06/04 00:59:08;;;;;;;0.00;0.00;;;19.10;99.90;;;;;;5033220;28;20506;-87
2023/06/04 01:01:42;;;;;;;0.30;0.30;;;19.20;99.90;;;;;;5032992;28;20037;-87
2023/06/04 01:04:16;;;;;;;0.10;0.10;;;19.20;99.90;;;;;;5032637;28;20120;-87
2023/06/04 01:06:49;;;;;;;0.10;0.10;;;19.20;99.90;;;;;;5032990;28;20148;-86
2023/06/04 01:09:15;;;;;;;0.10;0.05;;;19.30;99.90;;;;;;5033247;28;20155;-86
2023/06/04 01:11:41;;;;;;;0.10;0.10;;;19.40;99.90;;;;;;5032884;28;20022;-86
2023/06/04 01:14:09;;;;;;;0.10;0.10;;;19.50;99.90;;;;;;5033050;28;20029;-87
2023/06/04 01:17:01;;;;;;;0.00;0.00;;;19.40;99.90;;;;;;5032794;28;20553;-86
2023/06/04 01:20:04;;;;;;;0.35;0.35;;;19.30;99.90;;;;;;5032392;28;20144;-87
2023/06/04 01:22:41;;;;;;;0.10;0.10;;;19.50;99.90;;;;;;5015881;28;20026;-86
2023/06/04 01:25:19;;;;;;;0.00;0.00;;;19.50;99.90;;;;;;5032837;28;20101;-87
2023/06/04 01:27:52;;;;;;;0.00;0.00;;;19.40;99.90;;;;;;5033028;28;20029;-86
2023/06/04 01:30:23;;;;;;;0.00;0.00;;;19.50;99.90;;;;;;5032589;28;20155;-87
2023/06/04 01:32:49;;;;;;;0.00;0.00;;;19.50;99.90;;;;;;5032469;28;20075;-86
2023/06/04 01:35:15;;;;;;;0.10;0.10;;;19.50;99.90;;;;;;5032718;28;20096;-87
2023/06/04 01:37:40;;;;;;;0.13;0.13;;;19.30;99.90;;;;;;5033030;28;20087;-87
2023/06/04 01:40:08;;;;;;;0.10;0.10;;;18.80;99.90;;;;;;5032472;28;20037;-87
2023/06/04 01:42:34;;;;;;;0.00;0.00;;;18.60;99.90;;;;;;5045586;28;20520;-86
2023/06/04 01:45:00;;;;;;;0.20;0.10;;;19.00;99.90;;;;;;5056898;28;20517;-87
2023/06/04 01:47:26;;;;;;;0.00;0.00;;;19.10;99.90;;;;;;5056349;28;20040;-87
2023/06/04 01:49:51;;;;;;;0.00;0.00;;;19.20;99.90;;;;;;5033229;28;20485;-86
2023/06/04 01:52:17;;;;;;;0.00;0.00;;;19.30;99.90;;;;;;5036627;28;20029;-87
2023/06/04 01:54:43;;;;;;;0.00;0.00;;;19.10;99.90;;;;;;5036348;28;20025;-87
2023/06/04 01:57:09;;;;;;;0.05;0.05;;;19.10;99.90;;;;;;5018749;28;20087;-87
2023/06/04 01:59:36;;;;;;;0.15;0.15;;;19.40;99.90;;;;;;5036168;28;20049;-87
2023/06/04 02:02:02;;;;;;;0.55;0.50;;;19.20;99.90;;;;;;5035600;28;20033;-86
2023/06/04 02:04:28;;;;;;;0.08;0.08;;;19.20;99.90;;;;;;5018395;28;20528;-87
2023/06/04 02:06:53;;;;;;;0.00;0.00;;;19.30;99.90;;;;;;5036488;28;20057;-87
2023/06/04 02:09:19;;;;;;;0.20;0.20;;;19.40;99.90;;;;;;5036126;28;20436;-86
2023/06/04 02:11:45;;;;;;;0.20;0.20;;;19.20;99.90;;;;;;5036311;28;20040;-86
2023/06/04 02:14:10;;;;;;;0.00;0.00;;;19.20;99.90;;;;;;5036231;28;20048;-87
2023/06/04 02:16:37;;;;;;;0.00;0.00;;;19.20;99.90;;;;;;5036014;28;20059;-87
2023/06/04 02:19:03;;;;;;;0.10;0.10;;;19.00;99.90;;;;;;5036162;28;20022;-86
2023/06/04 02:21:29;;;;;;;0.10;0.10;;;18.90;99.90;;;;;;5035579;28;20037;-86
2023/06/04 02:23:54;;;;;;;0.00;0.00;;;19.00;99.90;;;;;;5018166;28;20021;-87
2023/06/04 02:26:21;;;;;;;0.10;0.10;;;19.00;99.90;;;;;;5036363;28;20025;-86
2023/06/04 02:28:47;;;;;;;0.00;0.00;;;19.20;99.90;;;;;;5018031;28;20072;-86
2023/06/04 02:31:12;;;;;;;0.10;0.10;;;19.10;99.90;;;;;;5035770;28;20025;-86
2023/06/04 02:33:38;;;;;;;0.10;0.10;;;19.10;99.90;;;;;;5036069;28;20477;-87
2023/06/04 02:36:04;;;;;;;0.10;0.10;;;19.10;99.90;;;;;;5035310;28;20052;-87
2023/06/04 02:38:29;;;;;;;0.00;0.00;;;19.10;99.90;;;;;;5035784;28;20030;-87
2023/06/04 02:40:55;;;;;;;0.10;0.10;;;19.20;99.90;;;;;;5035552;28;20025;-86
2023/06/04 02:43:21;;;;;;;0.00;0.00;;;19.10;99.90;;;;;;5037322;28;20504;-86
2023/06/04 02:45:46;;;;;;;0.10;0.10;;;18.90;99.90;;;;;;5055427;28;20100;-87
2023/06/04 02:48:12;;;;;;;0.00;0.00;;;18.70;99.90;;;;;;5055357;28;20032;-87
2023/06/04 02:50:37;;;;;;;0.10;0.10;;;18.80;99.90;;;;;;5042859;28;20101;-86
2023/06/04 02:53:03;;;;;;;0.60;0.20;;;18.90;99.90;;;;;;5017475;28;20167;-86
2023/06/04 02:55:29;;;;;;;0.10;0.10;;;18.90;99.90;;;;;;5034840;28;20048;-87
2023/06/04 02:57:54;;;;;;;0.00;0.00;;;18.70;99.90;;;;;;5034951;28;20387;-86
2023/06/04 03:00:20;;;;;;;0.50;0.30;;;18.50;99.90;;;;;;5017171;28;20048;-86
2023/06/04 03:02:47;;;;;;;0.10;0.10;;;18.30;99.90;;;;;;5035058;28;20037;-87
2023/06/04 03:05:14;;;;;;;0.00;0.00;;;18.30;99.90;;;;;;5017292;28;20025;-87
2023/06/04 03:07:43;;;;;;;0.15;0.15;;;18.30;99.90;;;;;;5017212;28;20099;-86
2023/06/04 03:10:10;;;;;;;0.28;0.28;;;18.20;99.90;;;;;;5035074;28;20433;-86
2023/06/04 03:12:36;;;;;;;0.10;0.10;;;18.10;99.90;;;;;;5017063;28;20025;-87
2023/06/04 03:15:02;;;;;;;0.20;0.20;;;18.10;99.90;;;;;;5034486;28;20030;-87
2023/06/04 03:17:28;;;;;;;0.00;0.00;;;18.30;99.90;;;;;;5035041;28;20028;-87
2023/06/04 03:19:55;;;;;;;0.00;0.00;;;18.40;99.90;;;;;;5034632;28;20022;-86
2023/06/04 03:22:21;;;;;;;0.10;0.10;;;18.30;99.90;;;;;;5034608;28;20037;-87
2023/06/04 03:24:47;;;;;;;0.52;0.45;;;18.30;99.90;;;;;;5016812;28;20063;-87
2023/06/04 03:27:13;;;;;;;0.55;0.20;;;18.20;99.90;;;;;;5034855;28;20025;-87
2023/06/04 03:29:39;;;;;;;0.00;0.00;;;18.30;99.90;;;;;;5034079;28;20024;-86
2023/06/04 03:32:05;;;;;;;0.30;0.30;;;18.50;99.90;;;;;;5016631;28;20029;-87
2023/06/04 03:34:32;;;;;;;0.57;0.57;;;18.60;99.90;;;;;;5034708;28;20014;-87
2023/06/04 03:36:58;;;;;;;1.85;0.63;;;18.40;99.90;;;;;;5034433;28;20028;-87
2023/06/04 03:39:24;;;;;;;0.10;0.10;;;18.20;99.90;;;;;;5016429;28;20029;-86
2023/06/04 03:41:50;;;;;;;0.40;0.30;;;18.10;99.90;;;;;;5023000;28;20080;-86
2023/06/04 03:44:16;;;;;;;0.22;0.22;;;18.20;99.90;;;;;;5054570;28;20021;-87
2023/06/04 03:46:43;;;;;;;0.20;0.20;;;18.20;99.90;;;;;;5053312;28;20477;-86
2023/06/04 03:49:10;;;;;;;0.20;0.10;;;18.10;99.90;;;;;;5054095;28;20393;-86
2023/06/04 03:51:36;;;;;;;0.00;0.00;;;17.90;99.90;;;;;;5054446;28;20029;-87
2023/06/04 03:54:02;;;;;;;0.10;0.10;;;18.00;99.90;;;;;;5036013;28;20025;-87
2023/06/04 03:56:28;;;;;;;0.52;0.20;;;18.10;99.90;;;;;;5054162;28;20040;-86
2023/06/04 03:58:54;;;;;;;0.17;0.17;;;18.30;99.90;;;;;;5054319;28;20040;-87
2023/06/04 04:01:20;;;;;;;0.10;0.10;;;18.50;99.90;;;;;;5036464;28;20029;-86
2023/06/04 04:03:49;;;;;;;0.10;0.10;;;18.50;99.90;;;;;;5054073;28;20032;-87
2023/06/04 04:06:15;;;;;;;0.00;0.00;;;18.10;99.90;;;;;;5053682;28;20063;-87
2023/06/04 04:08:43;;;;;;;0.10;0.10;;;18.10;99.90;;;;;;5053507;28;20437;-87
2023/06/04 04:11:09;;;;;;;0.10;0.10;;;18.30;99.90;;;;;;5053437;28;20037;-87
2023/06/04 04:13:35;;;;;;;0.20;0.20;;;18.40;99.90;;;;;;5035811;28;20448;-86
2023/06/04 04:16:01;;;;;;;0.30;0.30;;;18.40;99.90;;;;;;5053851;28;20111;-86
2023/06/04 04:18:26;;;;;;;0.10;0.10;;;18.40;99.90;;;;;;5053836;28;20025;-87
2023/06/04 04:20:52;;;;;;;0.10;0.10;;;18.30;99.90;;;;;;5052781;28;20044;-87
2023/06/04 04:23:18;;;;;;;0.10;0.10;;;18.50;99.90;;;;;;5053588;28;20247;-87
2023/06/04 04:25:44;;;;;;;0.00;0.00;;;18.20;99.90;;;;;;5053049;28;20021;-87
2023/06/04 04:28:10;;;;;;;0.15;0.15;;;18.20;99.90;;;;;;5053576;28;20029;-87
2023/06/04 04:30:36;;;;;;;0.00;0.00;;;18.30;99.90;;;;;;5053345;28;20102;-86
2023/06/04 04:33:04;;;;;;;1.75;0.30;;;18.30;99.90;;;;;;5034680;28;20028;-87
2023/06/04 04:35:32;;;;;;;0.10;0.10;;;18.40;99.90;;;;;;5053480;28;20037;-87
2023/06/04 04:37:58;;;;;;;0.00;0.00;;;18.40;99.90;;;;;;5053275;28;20111;-87
2023/06/04 04:40:24;;;;;;;0.00;0.00;;;18.50;99.90;;;;;;5035247;28;20025;-88
2023/06/04 04:42:50;;;;;;;0.20;0.20;;;18.40;99.90;;;;;;5053079;28;20032;-89
2023/06/04 04:45:17;;;;;;;0.10;0.10;;;18.40;99.90;;;;;;5035782;28;20017;-88
2023/06/04 04:47:43;;;;;;;0.03;0.03;;;18.40;99.90;;;;;;5053401;28;20036;-88
2023/06/04 04:50:08;;;;;;;0.15;0.15;;;18.60;99.90;;;;;;5045384;28;20044;-88
2023/06/04 04:52:34;;;;;;;0.00;0.00;;;18.60;99.90;;;;;;5033554;28;20033;-88
2023/06/04 04:55:00;;;;;;;0.08;0.08;;;18.60;99.90;;;;;;5015871;28;20029;-88
2023/06/04 04:57:25;;;;;;;0.00;0.00;;;18.70;99.90;;;;;;5034305;28;20021;-88
2023/06/04 04:59:51;;;;;;;0.10;0.10;;;18.90;99.90;;;;;;5033619;28;20445;-87
2023/06/04 05:02:16;;;;;;;1.27;0.50;;;18.70;99.90;;;;;;5033000;28;20462;-87
2023/06/04 05:04:42;;;;;;;0.00;0.00;;;18.40;99.90;;;;;;5015910;28;20108;-87
2023/06/04 05:07:08;;;;;;;0.03;0.03;;;18.50;99.90;;;;;;5032677;28;20025;-87
2023/06/04 05:09:33;;;;;;;0.00;0.00;;;18.70;99.90;;;;;;5033220;28;20025;-87
2023/06/04 05:12:00;;;;;;;0.13;0.13;;;18.80;99.90;;;;;;5031849;28;20029;-87
2023/06/04 05:14:25;;;;;;;0.10;0.10;;;19.00;99.90;;;;;;5032794;28;20034;-87
2023/06/04 05:16:51;;;;;;;0.00;0.00;;;19.00;99.90;;;;;;5014963;28;20026;-87
2023/06/04 05:19:17;;;;;;;0.38;0.38;;;19.00;99.90;;;;;;5014876;28;20079;-87
2023/06/04 05:21:43;;;;;;;0.00;0.00;;;19.10;99.90;;;;;;5033160;28;20448;-86
2023/06/04 05:24:10;;;;;;;0.38;0.20;;;19.20;99.90;;;;;;5032481;28;20030;-86
2023/06/04 05:26:37;;;;;;;0.00;0.00;;;18.80;99.90;;;;;;5015149;28;20398;-87
2023/06/04 05:29:04;;;;;;;0.05;0.05;;;18.90;99.90;;;;;;5033094;28;20053;-87
2023/06/04 05:31:33;;;;;;;0.10;0.10;;;19.00;99.90;;;;;;5032935;28;20032;-87
2023/06/04 05:34:04;;;;;;;0.00;0.00;;;19.00;99.90;;;;;;5032737;28;20033;-86
2023/06/04 05:36:30;;;;;;;0.10;0.10;;;19.20;99.90;;;;;;5032951;28;20039;-87
2023/06/04 05:38:59;;;;;;;0.10;0.10;;;19.30;99.90;;;;;;5032794;28;20021;-87
2023/06/04 05:41:28;;;;;;;0.00;0.00;;;19.30;99.90;;;;;;5036356;28;20064;-87
2023/06/04 05:43:54;;;;;;;0.47;0.47;;;18.80;99.90;;;;;;5051928;28;20021;-87
2023/06/04 05:46:19;;;;;;;0.05;0.05;;;18.80;99.90;;;;;;5034993;28;20393;-86
2023/06/04 05:48:45;;;;;;;0.00;0.00;;;18.90;99.90;;;;;;5034882;28;20027;-87
2023/06/04 05:51:13;;;;;;;0.10;0.10;;;18.90;99.90;;;;;;5052334;28;20083;-87
2023/06/04 05:53:39;;;;;;;0.00;0.00;;;18.90;99.90;;;;;;5052563;28;20025;-87
2023/06/04 05:56:04;;;;;;;0.00;0.00;;;18.70;99.90;;;;;;5052678;28;20520;-87
2023/06/04 05:58:34;;;;;;;0.00;0.00;;;19.00;99.90;;;;;;5034219;28;20032;-87
2023/06/04 06:01:00;;;;;;;0.00;0.00;;;18.90;99.90;;;;;;5052778;28;20124;-87
2023/06/04 06:03:27;;;;;;;0.10;0.10;;;18.90;99.90;;;;;;5034510;28;20056;-84
2023/06/04 06:05:54;;;;;;;0.10;0.10;;;18.90;99.90;;;;;;5051665;28;20032;-87
2023/06/04 06:08:21;;;;;;;0.00;0.00;;;19.10;99.90;;;;;;5051388;28;20021;-86
2023/06/04 06:10:46;;;;;;;0.20;0.20;;;19.50;99.90;;;;;;5051843;28;20029;-86
2023/06/04 06:13:12;;;;;;;0.17;0.17;;;19.60;99.90;;;;;;5051261;28;20118;-85
2023/06/04 06:15:38;;;;;;;0.10;0.10;;;19.80;99.90;;;;;;5051596;28;20401;-86
2023/06/04 06:18:04;;;;;;;0.00;0.00;;;19.90;99.90;;;;;;5051731;28;20032;-87
2023/06/04 06:20:30;;;;;;;0.00;0.00;;;20.20;99.90;;;;;;5033561;28;20033;-86
2023/06/04 06:22:55;;;;;;;0.10;0.10;;;20.20;99.90;;;;;;5051726;28;20041;-86
2023/06/04 06:25:21;;;;;;;0.05;0.05;;;20.10;99.90;;;;;;5051478;28;20049;-86
2023/06/04 06:27:48;;;;;;;0.10;0.10;;;20.20;99.90;;;;;;5051754;28;20481;-86
2023/06/04 06:30:14;;;;;;;0.20;0.20;;;20.30;99.90;;;;;;5036742;28;20504;-86
2023/06/04 06:32:39;;;;;;;0.00;0.00;;;20.30;99.90;;;;;;5055043;28;20045;-86
2023/06/04 06:35:05;;;;;;;0.00;0.00;;;20.50;99.90;;;;;;5037013;28;20033;-86
2023/06/04 06:37:31;;;;;;;0.10;0.10;;;20.60;99.90;;;;;;5054622;28;20017;-86
2023/06/04 06:39:57;;;;;;;0.00;0.00;;;20.60;99.90;;;;;;5054560;28;20078;-86
2023/06/04 06:42:23;;;;;;;0.05;0.05;;;20.70;99.90;;;;;;5036823;28;20059;-86
2023/06/04 06:44:48;;;;;;;0.10;0.10;;;20.70;99.90;;;;;;5054837;28;20029;-86
2023/06/04 06:47:14;;;;;;;0.00;0.00;;;20.70;99.90;;;;;;5055041;28;20442;-86
2023/06/04 06:49:43;;;;;;;0.00;0.00;;;20.50;99.90;;;;;;5037258;28;20524;-86
2023/06/04 06:52:09;;;;;;;0.00;0.00;;;20.30;99.90;;;;;;5054324;28;20037;-86
2023/06/04 06:54:35;;;;;;;0.10;0.10;;;20.30;99.90;;;;;;5054928;28;20032;-86
2023/06/04 06:57:02;;;;;;;0.00;0.00;;;20.40;99.90;;;;;;5054774;28;20021;-86
2023/06/04 06:59:28;;;;;;;0.20;0.20;;;20.40;99.90;;;;;;5054650;28;20140;-86
2023/06/04 07:01:54;;;;;;;0.10;0.10;;;20.40;99.90;;;;;;5054345;28;20509;-86
2023/06/04 07:04:20;;;;;;;0.20;0.20;;;20.40;99.90;;;;;;5054607;28;20118;-86
2023/06/04 07:06:46;;;;;;;0.15;0.15;;;20.50;99.90;;;;;;5036367;28;20025;-86
2023/06/04 07:09:12;;;;;;;0.30;0.30;;;20.30;99.90;;;;;;5036780;28;20028;-86
2023/06/04 07:11:37;;;;;;;0.20;0.20;;;20.40;99.90;;;;;;5036994;28;20033;-86
2023/06/04 07:14:03;;;;;;;0.10;0.10;;;20.40;99.90;;;;;;5054363;28;20389;-86
2023/06/04 07:16:29;;;;;;;0.10;0.10;;;20.50;99.90;;;;;;5035941;28;20025;-86
2023/06/04 07:18:55;;;;;;;0.10;0.10;;;20.40;99.90;;;;;;5054571;28;20481;-86
2023/06/04 07:21:23;;;;;;;1.55;0.45;;;20.50;99.90;;;;;;5035774;28;20043;-86
2023/06/04 07:23:50;;;;;;;0.10;0.10;;;20.40;99.90;;;;;;5054380;28;20036;-86
2023/06/04 07:26:16;;;;;;;0.30;0.30;;;20.60;99.90;;;;;;5054493;28;20362;-86
2023/06/04 07:28:42;;;;;;;0.17;0.17;;;20.90;99.90;;;;;;5053934;28;20021;-86
2023/06/04 07:31:08;;;;;;;0.17;0.17;;;20.70;99.90;;;;;;5054062;28;20028;-86
2023/06/04 07:33:33;;;;;;;0.10;0.10;;;21.10;99.90;;;;;;5053943;28;20025;-86
2023/06/04 07:35:59;;;;;;;0.00;0.00;;;21.40;99.90;;;;;;5036005;28;20029;-86
2023/06/04 07:38:25;;;;;;;0.13;0.13;;;21.50;99.90;;;;;;5053967;28;20039;-86
2023/06/04 07:40:51;;;;;;;0.20;0.20;;;21.60;99.90;;;;;;5053442;28;20036;-86
2023/06/04 07:43:17;;;;;;;0.10;0.10;;;21.80;99.90;;;;;;5035874;28;20021;-86
2023/06/04 07:45:42;;;;;;;0.10;0.10;;;22.10;99.90;;;;;;5054018;28;20111;-86
2023/06/04 07:48:11;;;;;;;0.10;0.10;;;22.10;99.90;;;;;;5053741;28;20021;-86
2023/06/04 07:50:37;;;;;;;0.10;0.10;;;22.40;99.90;;;;;;5041234;28;20390;-86
2023/06/04 07:53:03;;;;;;;0.10;0.10;;;22.70;99.90;;;;;;5034184;28;20026;-86
2023/06/04 07:55:28;;;;;;;0.10;0.10;;;22.80;99.90;;;;;;5033614;28;20440;-86
2023/06/04 07:57:54;;;;;;;0.00;0.00;;;23.00;99.90;;;;;;5033685;28;20548;-86
2023/06/04 08:00:19;;;;;;;0.22;0.20;;;22.90;99.90;;;;;;5015573;28;20063;-86
2023/06/04 08:02:45;;;;;;;0.43;0.30;;;22.60;99.90;;;;;;5033446;28;20124;-86
2023/06/04 08:05:13;;;;;;;0.05;0.05;;;22.80;99.90;;;;;;5033442;28;20075;-85
2023/06/04 08:07:40;;;;;;;0.03;0.03;;;23.20;99.90;;;;;;5033675;28;20031;-86
2023/06/04 08:10:06;;;;;;;1.15;0.43;;;23.40;99.90;;;;;;5033369;28;20101;-86
2023/06/04 08:12:32;;;;;;;0.10;0.10;;;23.50;99.90;;;;;;5033756;28;20030;-86
2023/06/04 08:14:57;;;;;;;0.75;0.30;;;23.40;99.90;;;;;;5015563;28;20371;-86
2023/06/04 08:17:23;;;;;;;0.10;0.10;;;23.30;99.90;;;;;;5032752;28;20072;-86
2023/06/04 08:19:49;;;;;;;0.20;0.20;;;23.50;99.90;;;;;;5015651;28;20061;-86
2023/06/04 08:22:15;;;;;;;0.10;0.10;;;23.30;99.90;;;;;;5033125;28;20469;-86
2023/06/04 08:24:41;;;;;;;0.10;0.10;;;23.40;99.90;;;;;;5032871;28;20029;-86
2023/06/04 08:27:08;;;;;;;0.10;0.10;;;23.70;99.90;;;;;;5032995;28;20021;-86
2023/06/04 08:29:37;;;;;;;0.10;0.10;;;23.70;99.90;;;;;;5033023;28;20030;-86
2023/06/04 08:32:03;;;;;;;0.25;0.25;;;23.70;99.90;;;;;;5032525;28;20418;-86
2023/06/04 08:34:29;;;;;;;1.08;0.20;;;23.60;99.90;;;;;;5033187;28;20057;-87
2023/06/04 08:36:55;;;;;;;0.80;0.20;;;23.50;99.90;;;;;;5015563;28;20059;-86
2023/06/04 08:39:22;;;;;;;0.47;0.40;;;23.40;99.90;;;;;;5032678;28;20079;-86
2023/06/04 08:41:52;;;;;;;0.93;0.13;;;23.70;99.90;;;;;;5039486;28;20040;-86
2023/06/04 08:44:17;;;;;;;0.10;0.10;;;24.00;99.90;;;;;;5052766;28;20029;-86
2023/06/04 08:46:44;;;;;;;0.08;0.08;;;24.10;99.90;;;;;;5052847;28;20477;-86
2023/06/04 08:49:12;;;;;;;0.63;0.50;;;24.30;99.90;;;;;;5052425;28;20036;-86
2023/06/04 08:51:40;;;;;;;0.17;0.17;;;24.60;99.90;;;;;;5014890;28;20037;-86
2023/06/04 08:54:07;;;;;;;0.10;0.10;;;24.60;99.90;;;;;;5033183;28;20052;-86
2023/06/04 08:56:33;;;;;;;0.17;0.17;;;24.80;99.90;;;;;;5032604;28;20041;-86
2023/06/04 08:59:04;;;;;;;0.20;0.20;;;24.70;99.90;;;;;;5032496;28;20080;-86
2023/06/04 09:01:32;;;;;;;0.50;0.35;;;24.70;99.90;;;;;;5032169;28;20044;-86
2023/06/04 09:03:59;;;;;;;0.10;0.10;;;24.80;99.90;;;;;;5032608;28;20052;-86
2023/06/04 09:06:28;;;;;;;0.13;0.10;;;24.70;99.90;;;;;;5032912;28;20048;-86
2023/06/04 09:08:58;;;;;;;0.22;0.22;;;24.50;99.90;;;;;;5032444;28;20049;-86
2023/06/04 09:11:33;;;;;;;0.20;0.20;;;24.30;99.90;;;;;;5032447;28;20025;-86
2023/06/04 09:14:01;;;;;;;0.22;0.22;;;24.80;99.90;;;;;;5032454;28;20387;-86
2023/06/04 09:16:26;;;;;;;0.22;0.22;;;25.00;99.90;;;;;;5014572;28;20017;-86
2023/06/04 09:18:53;;;;;;;0.10;0.10;;;25.10;99.90;;;;;;5032383;28;20508;-86
2023/06/04 09:21:19;;;;;;;0.70;0.43;;;24.90;99.90;;;;;;5014422;28;20029;-86
2023/06/04 09:23:48;;;;;;;0.10;0.10;;;25.00;99.90;;;;;;5032353;28;20030;-86
2023/06/04 09:26:14;;;;;;;0.08;0.08;;;25.00;99.90;;;;;;5032263;28;20030;-86
2023/06/04 09:28:45;;;;;;;0.20;0.20;;;25.00;99.90;;;;;;5032027;28;20049;-86
2023/06/04 09:31:15;;;;;;;0.13;0.13;;;24.70;99.90;;;;;;5032059;28;20045;-86
2023/06/04 09:33:49;;;;;;;0.20;0.20;;;24.60;99.90;;;;;;5032295;28;20404;-86
2023/06/04 09:36:15;;;;;;;0.30;0.30;;;24.80;99.90;;;;;;5032380;28;20025;-87
2023/06/04 09:38:41;;;;;;;0.00;0.00;;;24.50;99.90;;;;;;5014582;28;20037;-86
2023/06/04 09:41:14;;;;;;;0.28;0.08;;;24.70;99.90;;;;;;5033165;28;20029;-86
2023/06/04 09:43:40;;;;;;;0.55;0.55;;;24.60;99.90;;;;;;5052032;28;20017;-86
2023/06/04 09:46:11;;;;;;;0.00;0.00;;;24.80;99.90;;;;;;5051431;28;20048;-86
2023/06/04 09:48:37;;;;;;;0.08;0.08;;;24.90;99.90;;;;;;5052422;28;20032;-86
2023/06/04 09:51:15;;;;;;;0.30;0.20;;;25.00;99.90;;;;;;5035932;28;20061;-86
2023/06/04 09:53:41;;;;;;;1.02;0.55;;;25.20;99.90;;;;;;5031866;28;20528;-86
2023/06/04 09:56:11;;;;;;;0.10;0.10;;;25.20;99.90;;;;;;5032294;28;20056;-86
2023/06/04 09:58:38;;;;;;;0.60;0.60;;;25.30;99.90;;;;;;5031654;28;20088;-86
2023/06/04 10:01:05;;;;;;;0.22;0.22;;;25.20;99.90;;;;;;5013917;28;20104;-86
2023/06/04 10:03:35;;;;;;;0.43;0.43;;;25.30;99.90;;;;;;5032407;28;20029;-86
2023/06/04 10:06:04;;;;;;;0.40;0.40;;;25.20;99.90;;;;;;5035913;28;20493;-86
2023/06/04 10:08:31;;;;;;;0.08;0.08;;;25.10;99.90;;;;;;5035478;28;20109;-86
2023/06/04 10:11:00;;;;;;;0.40;0.40;;;25.30;99.90;;;;;;5035585;28;20033;-86
2023/06/04 10:13:31;;;;;;;0.57;0.38;;;25.20;99.90;;;;;;5035199;28;20028;-86
2023/06/04 10:16:01;;;;;;;0.20;0.20;;;25.40;99.90;;;;;;5035891;28;20037;-86
2023/06/04 10:18:30;;;;;;;0.98;0.38;;;25.30;99.90;;;;;;5035561;28;20409;-86
2023/06/04 10:20:56;;;;;;;0.70;0.57;;;25.40;99.90;;;;;;5035381;28;20072;-85
2023/06/04 10:23:23;;;;;;;0.17;0.17;;;25.40;99.90;;;;;;5035339;28;20037;-86
2023/06/04 10:25:53;;;;;;;0.10;0.10;;;25.70;99.90;;;;;;5035271;28;20025;-86
2023/06/04 10:28:20;;;;;;;0.17;0.17;;;25.90;99.90;;;;;;5035007;28;20037;-86
2023/06/04 10:30:47;;;;;;;0.43;0.40;;;25.80;99.90;;;;;;5035249;28;20033;-86
2023/06/04 10:33:14;;;;;;;0.52;0.25;;;25.90;99.90;;;;;;5035565;28;20029;-86
2023/06/04 10:35:40;;;;;;;0.30;0.30;;;26.10;99.90;;;;;;5035304;28;20029;-86
2023/06/04 10:38:09;;;;;;;2.38;1.00;;;26.20;99.90;;;;;;5035062;28;20044;-86
2023/06/04 10:40:36;;;;;;;0.10;0.10;;;26.30;99.90;;;;;;5017672;28;20034;-85
2023/06/04 10:43:12;;;;;;;0.25;0.25;;;26.00;99.90;;;;;;5033623;28;20389;-86
2023/06/04 10:45:39;;;;;;;0.30;0.30;;;26.20;99.90;;;;;;5054866;28;20082;-86
2023/06/04 10:48:07;;;;;;;0.17;0.17;;;26.10;99.90;;;;;;5055353;28;20393;-86
2023/06/04 10:50:34;;;;;;;0.25;0.25;;;26.30;99.90;;;;;;5042859;28;20021;-86
2023/06/04 10:53:03;;;;;;;0.35;0.35;;;26.40;99.90;;;;;;5017158;28;20025;-86
2023/06/04 10:55:33;;;;;;;0.20;0.20;;;26.40;99.90;;;;;;5035125;28;20035;-86
2023/06/04 10:58:02;;;;;;;0.95;0.30;;;25.70;99.90;;;;;;5033946;28;20037;-87
2023/06/04 11:00:42;;;;;;;0.00;0.00;;;25.70;99.90;;;;;;5034369;28;20107;-87
2023/06/04 11:03:10;;;;;;;0.00;0.00;;;25.50;99.90;;;;;;5034954;28;20448;-86
2023/06/04 11:05:44;;;;;;;0.20;0.20;;;25.60;99.90;;;;;;5016837;28;20445;-88
2023/06/04 11:08:12;;;;;;;0.20;0.20;;;26.10;99.90;;;;;;5034517;28;20117;-86
2023/06/04 11:10:40;;;;;;;0.20;0.20;;;26.40;99.90;;;;;;5034359;28;20025;-86
2023/06/04 11:13:06;;;;;;;0.25;0.25;;;26.40;99.90;;;;;;5034347;28;20026;-86
2023/06/04 11:15:45;;;;;;;0.35;0.35;;;26.20;99.90;;;;;;5034825;28;20486;-86
2023/06/04 11:18:15;;;;;;;0.15;0.15;;;26.40;99.90;;;;;;5034678;28;20038;-86
2023/06/04 11:20:42;;;;;;;1.23;0.73;;;26.60;99.90;;;;;;5016445;28;20053;-86
2023/06/04 11:23:08;;;;;;;0.30;0.28;;;26.70;99.90;;;;;;5034074;28;20025;-87
2023/06/04 11:25:34;;;;;;;0.40;0.30;;;26.60;99.90;;;;;;5034266;28;20358;-86
2023/06/04 11:28:01;;;;;;;0.40;0.10;;;26.70;99.90;;;;;;5033854;28;20029;-86
2023/06/04 11:30:27;;;;;;;0.10;0.10;;;26.80;99.90;;;;;;5034511;28;20112;-86
2023/06/04 11:33:03;;;;;;;0.57;0.52;;;26.80;99.90;;;;;;5034051;28;20486;-86
2023/06/04 11:35:29;;;;;;;0.10;0.10;;;26.60;99.90;;;;;;5034074;28;20378;-86
2023/06/04 11:37:56;;;;;;;0.52;0.40;;;26.80;99.90;;;;;;5034280;28;20033;-86
2023/06/04 11:40:22;;;;;;;0.13;0.13;;;26.60;99.90;;;;;;5033859;28;20026;-86
2023/06/04 11:42:49;;;;;;;0.10;0.10;;;26.70;99.90;;;;;;5048825;28;20029;-86
2023/06/04 11:45:17;;;;;;;0.10;0.10;;;27.10;99.90;;;;;;5053757;28;20112;-86
2023/06/04 11:47:53;;;;;;;0.30;0.30;;;27.50;99.90;;;;;;5054242;28;20098;-86
2023/06/04 11:50:20;;;;;;;0.28;0.28;;;27.50;99.90;;;;;;5026038;28;20095;-86
2023/06/04 11:52:48;;;;;;;0.10;0.10;;;27.40;99.90;;;;;;5033694;28;20021;-86
2023/06/04 11:55:14;;;;;;;0.20;0.20;;;27.40;99.90;;;;;;5033549;28;20036;-86
2023/06/04 11:57:40;;;;;;;2.08;0.50;;;27.20;99.90;;;;;;5033588;28;20033;-86
2023/06/04 12:00:11;;;;;;;0.20;0.20;;;26.90;99.90;;;;;;5033408;28;20057;-86
2023/06/04 12:02:37;;;;;;;0.28;0.28;;;27.00;99.90;;;;;;5033565;28;20041;-86
2023/06/04 12:05:18;;;;;;;0.17;0.17;;;27.40;99.90;;;;;;5033573;28;20025;-86
2023/06/04 12:07:44;;;;;;;0.30;0.30;;;27.70;99.90;;;;;;5033576;28;20030;-86
2023/06/04 12:10:14;;;;;;;0.20;0.20;;;27.70;99.90;;;;;;5033104;28;20410;-86
2023/06/04 12:12:42;;;;;;;0.30;0.30;;;27.70;99.90;;;;;;5033435;28;20037;-86
2023/06/04 12:15:09;;;;;;;0.30;0.30;;;28.10;99.90;;;;;;5033394;28;20497;-86
2023/06/04 12:17:37;;;;;;;0.22;0.22;;;28.10;99.90;;;;;;5033221;28;20033;-86
2023/06/04 12:20:03;;;;;;;0.32;0.32;;;28.20;99.90;;;;;;5033663;28;20022;-86
2023/06/04 12:22:30;;;;;;;0.30;0.30;;;28.20;99.90;;;;;;5015204;28;20041;-86
2023/06/04 12:24:57;;;;;;;0.52;0.52;;;28.40;99.90;;;;;;5032915;28;20027;-86
2023/06/04 12:27:25;;;;;;;0.25;0.25;;;28.50;99.90;;;;;;5032647;28;20071;-86
2023/06/04 12:30:00;;;;;;;1.27;0.20;;;29.00;99.90;;;;;;5032777;28;20500;-86
2023/06/04 12:32:26;;;;;;;0.05;0.05;;;29.50;99.90;;;;;;5033010;28;20021;-86
2023/06/04 12:34:53;;;;;;;0.10;0.10;;;29.50;99.90;;;;;;5015051;28;20468;-86
2023/06/04 12:37:18;;;;;;;0.20;0.20;;;29.90;99.90;;;;;;5015510;28;20473;-86
2023/06/04 12:39:45;;;;;;;0.10;0.10;;;30.30;99.90;;;;;;5032562;28;20057;-86
2023/06/04 12:42:10;;;;;;;0.40;0.40;;;31.20;99.90;;;;;;5042355;28;20500;-86
2023/06/04 12:44:37;;;;;;;0.10;0.10;;;30.90;99.90;;;;;;5052575;28;20051;-86
2023/06/04 12:47:04;;;;;;;0.20;0.20;;;32.60;99.90;;;;;;5052329;28;20068;-87